Time;durP1;ratioP1;P1;durP2;ratioP2;P2;SDS_P1;SDS_P2;PMS_P1;PMS_P2;Temp;Humidity;BMP_temperature;BMP_pressure;BME280_temperature;BME280_humidity;BME280_pressure;Samples;Min_cycle;Max_cycle;Signal;HPM_P1;HPM_P2
2023/02/13 00:01:17;;;;;;;39.53;19.95;;;;;;;7.31;100.00;102953.38;5033021;28;20128;-64
2023/02/13 00:03:44;;;;;;;40.33;21.20;;;;;;;7.32;100.00;102961.22;5036359;28;20182;-64
2023/02/13 00:06:12;;;;;;;32.35;17.88;;;;;;;7.33;100.00;102957.72;5037568;28;20076;-65
2023/02/13 00:08:39;;;;;;;31.45;17.40;;;;;;;7.32;100.00;102961.22;5036889;28;20045;-63
2023/02/13 00:11:06;;;;;;;32.47;17.08;;;;;;;7.31;100.00;102962.13;5040142;28;20156;-65
2023/02/13 00:13:34;;;;;;;25.70;15.82;;;;;;;7.32;100.00;102961.22;5039717;28;20049;-65
2023/02/13 00:16:03;;;;;;;29.00;15.95;;;;;;;7.33;100.00;102968.19;5038807;28;20600;-64
2023/02/13 00:18:34;;;;;;;26.23;15.20;;;;;;;7.31;100.00;102966.50;5038854;28;20825;-66
2023/02/13 00:21:10;;;;;;;21.45;13.63;;;;;;;7.26;100.00;102966.53;5039155;28;20143;-65
2023/02/13 00:23:38;;;;;;;20.13;13.13;;;;;;;7.27;100.00;102964.78;5039392;28;20517;-61
2023/02/13 00:26:08;;;;;;;19.55;12.48;;;;;;;7.22;100.00;102962.19;5039363;28;20172;-62
2023/02/13 00:28:36;;;;;;;23.25;12.93;;;;;;;7.23;100.00;102960.44;5037281;28;20051;-66
2023/02/13 00:31:04;;;;;;;25.23;13.32;;;;;;;7.21;100.00;102955.22;5039143;28;20059;-65
2023/02/13 00:33:32;;;;;;;16.50;9.75;;;;;;;7.18;100.00;102960.47;5038835;28;20740;-64
2023/02/13 00:36:07;;;;;;;16.85;9.80;;;;;;;7.15;100.00;102959.63;5051859;28;20053;-63
2023/02/13 00:38:36;;;;;;;11.43;8.05;;;;;;;7.19;100.00;102956.97;5039109;28;20144;-67
2023/02/13 00:41:04;;;;;;;16.50;9.27;;;;;;;7.16;100.00;102958.72;5039535;28;20136;-61
2023/02/13 00:43:31;;;;;;;15.10;9.30;;;;;;;7.12;100.00;102962.28;5038707;28;20095;-64
2023/02/13 00:45:59;;;;;;;14.95;9.45;;;;;;;7.12;100.00;102957.03;5038499;28;20073;-66
2023/02/13 00:48:28;;;;;;;15.95;8.63;;;;;;;7.10;100.00;102957.91;5038974;28;20143;-63
2023/02/13 00:50:56;;;;;;;11.32;7.63;;;;;;;7.09;100.00;102956.16;5041665;28;20415;-65
2023/02/13 00:53:25;;;;;;;12.85;7.43;;;;;;;7.12;100.00;102959.66;5041107;28;20057;-63
2023/02/13 00:55:52;;;;;;;11.23;6.57;;;;;;;7.07;100.00;102955.31;5041965;28;20044;-65
2023/02/13 00:58:20;;;;;;;16.55;8.23;;;;;;;7.06;100.00;102947.44;5041655;28;20061;-65
2023/02/13 01:00:47;;;;;;;13.60;6.57;;;;;;;7.08;100.00;102953.56;5071658;22;20072;-61
2023/02/13 01:03:15;;;;;;;11.10;5.72;;;;;;;7.12;100.00;102951.81;5022582;28;20072;-59
2023/02/13 01:05:44;;;;;;;13.35;6.22;;;;;;;7.12;100.00;102954.44;5020767;28;20112;-61
2023/02/13 01:08:12;;;;;;;10.82;6.28;;;;;;;7.08;100.00;102953.56;5018741;28;20621;-61
2023/02/13 01:10:40;;;;;;;9.02;5.45;;;;;;;7.06;100.00;102956.19;5021167;28;20084;-61
2023/02/13 01:13:07;;;;;;;9.68;4.40;;;;;;;7.01;100.00;102957.09;5011913;28;20045;-60
2023/02/13 01:15:35;;;;;;;9.00;4.43;;;;;;;7.01;100.00;102954.47;5010739;28;20060;-61
2023/02/13 01:18:03;;;;;;;9.18;4.85;;;;;;;6.99;100.00;102962.34;5013395;28;20045;-57
2023/02/13 01:20:30;;;;;;;8.35;4.65;;;;;;;7.02;100.00;102956.22;5011480;28;20063;-60
2023/02/13 01:22:57;;;;;;;10.32;4.95;;;;;;;6.99;100.00;102962.34;5009900;28;20506;-57
2023/02/13 01:25:25;;;;;;;7.60;3.63;;;;;;;6.98;100.00;102955.38;5009614;28;20615;-61
2023/02/13 01:27:52;;;;;;;6.10;3.67;;;;;;;7.02;100.00;102958.84;5012534;28;20072;-60
2023/02/13 01:30:19;;;;;;;6.47;3.95;;;;;;;7.01;100.00;102950.09;5012506;28;20144;-58
2023/02/13 01:32:46;;;;;;;6.82;3.63;;;;;;;7.02;100.00;102954.47;5009983;28;20417;-60
2023/02/13 01:35:38;;;;;;;6.95;4.15;;;;;;;6.99;100.00;102962.34;5003425;28;20495;-58
2023/02/13 01:38:05;;;;;;;8.10;4.35;;;;;;;7.00;100.00;102961.47;5007978;28;20136;-63
2023/02/13 01:40:32;;;;;;;8.00;3.80;;;;;;;6.96;100.00;102956.25;5014536;28;20084;-60
2023/02/13 01:42:59;;;;;;;5.97;3.85;;;;;;;6.94;100.00;102953.66;5011028;28;20045;-60
2023/02/13 01:45:29;;;;;;;7.10;4.40;;;;;;;6.94;100.00;102948.44;5014280;28;20045;-59
2023/02/13 01:47:59;;;;;;;5.95;4.32;;;;;;;6.90;100.00;102949.31;5011590;28;20517;-59
2023/02/13 01:50:36;;;;;;;8.32;4.10;;;;;;;6.93;100.00;102945.81;5013110;28;20045;-59
2023/02/13 01:53:08;;;;;;;7.03;3.90;;;;;;;6.90;100.00;102949.31;5009920;28;20062;-60
2023/02/13 01:55:47;;;;;;;8.10;4.40;;;;;;;6.86;100.00;102945.00;5005318;28;20173;-61
2023/02/13 01:58:17;;;;;;;5.40;4.07;;;;;;;6.83;100.00;102947.59;5010311;28;20061;-59
2023/02/13 02:00:48;;;;;;;7.95;4.22;;;;;;;6.84;100.00;102949.34;5008168;28;20448;-59
2023/02/13 02:03:26;;;;;;;5.60;3.60;;;;;;;6.87;100.00;102945.84;5012278;28;20148;-59
2023/02/13 02:05:55;;;;;;;6.90;3.92;;;;;;;6.90;100.00;102941.47;5008610;28;20593;-58
2023/02/13 02:08:22;;;;;;;8.63;4.55;;;;;;;6.94;100.00;102947.56;5010038;28;20176;-58
2023/02/13 02:15:16;;;;;;;8.10;4.05;;;;;;;6.79;100.00;102949.38;5013653;28;20036;-60
2023/02/13 02:18:01;;;;;;;6.57;3.85;;;;;;;6.75;100.00;102958.13;5010641;28;20137;-60
2023/02/13 02:21:32;;;;;;;7.25;3.60;;;;;;;6.77;100.00;102958.13;5012182;28;20061;-61
2023/02/13 02:24:37;;;;;;;7.93;3.63;;;;;;;6.75;100.00;102957.25;4996127;28;20073;-63
2023/02/13 02:27:10;;;;;;;8.15;4.55;;;;;;;6.76;100.00;102953.78;5011380;28;20968;-56
2023/02/13 02:29:56;;;;;;;5.47;3.65;;;;;;;6.78;100.00;102962.47;5005719;28;20133;-61
2023/02/13 02:32:35;;;;;;;5.97;4.40;;;;;;;6.75;100.00;102960.75;5005060;28;20065;-57
2023/02/13 02:35:20;;;;;;;8.07;4.03;;;;;;;6.77;100.00;102960.75;5003766;28;20057;-58
2023/02/13 02:38:09;;;;;;;7.95;3.95;;;;;;;6.80;100.00;102960.75;4990486;28;20053;-59
2023/02/13 02:40:47;;;;;;;9.10;5.07;;;;;;;6.76;100.00;102953.78;5002616;28;20986;-60
2023/02/13 02:43:26;;;;;;;7.53;5.50;;;;;;;6.74;100.00;102959.00;5000943;28;20843;-57
2023/02/13 02:46:00;;;;;;;7.82;5.43;;;;;;;6.72;100.00;102957.28;5005536;28;20438;-62
2023/02/13 02:51:52;;;;;;;9.13;4.93;;;;;;;6.71;100.00;102952.91;5018173;28;20100;-61
2023/02/13 03:06:09;;;;;;;7.32;4.85;;;;;;;6.65;100.00;102960.81;5026494;28;20068;-60
2023/02/13 03:06:10;;;;;;;7.35;5.28;;;;;;;6.60;100.00;102959.09;5005690;28;20741;-58
2023/02/13 03:14:16;;;;;;;;;;;;;;;6.61;100.00;102965.19;5007141;28;20141;-61
2023/02/13 03:22:59;;;;;;;9.48;6.65;;;;;;;6.59;100.00;102962.59;5006002;28;20145;-60
2023/02/13 03:25:42;;;;;;;10.23;6.60;;;;;;;6.58;100.00;102958.22;5004373;28;20141;-59
2023/02/13 03:31:09;;;;;;;9.50;6.55;;;;;;;6.58;100.00;102960.84;4998869;28;20137;-60
2023/02/13 03:33:45;;;;;;;8.60;5.97;;;;;;;6.57;100.00;102961.72;5002052;28;20441;-62
2023/02/13 03:40:03;;;;;;;8.68;6.38;;;;;;;6.56;100.00;102959.97;5004787;28;20133;-60
2023/02/13 03:43:06;;;;;;;9.82;7.00;;;;;;;6.56;100.00;102959.97;5008119;28;20050;-60
2023/02/13 03:45:54;;;;;;;8.75;6.13;;;;;;;6.60;100.00;102952.97;4998042;28;20060;-56
2023/02/13 03:51:15;;;;;;;9.80;6.47;;;;;;;6.57;100.00;102956.50;5008474;28;20514;-61
2023/02/13 03:53:44;;;;;;;11.98;7.85;;;;;;;6.53;100.00;102953.91;5007503;28;20076;-61
2023/02/13 03:59:15;;;;;;;9.15;7.10;;;;;;;6.47;100.00;102954.78;5007880;28;20488;-60
2023/02/13 04:01:50;;;;;;;11.75;7.70;;;;;;;6.48;100.00;102950.41;5010969;28;20053;-60
2023/02/13 04:04:24;;;;;;;10.13;7.78;;;;;;;6.46;100.00;102958.28;5006591;28;20132;-60
2023/02/13 04:06:58;;;;;;;10.27;7.47;;;;;;;6.45;100.00;102950.44;5014011;28;20097;-61
2023/02/13 04:09:27;;;;;;;7.82;6.25;;;;;;;6.44;100.00;102949.59;5015889;28;20077;-63
2023/02/13 04:12:03;;;;;;;12.07;7.85;;;;;;;6.43;100.00;102939.97;5019149;28;20113;-62
2023/02/13 04:14:36;;;;;;;13.77;7.80;;;;;;;6.44;100.00;102938.22;5010941;28;20060;-59
2023/02/13 04:17:07;;;;;;;11.30;7.63;;;;;;;6.46;100.00;102941.72;5006513;28;20078;-60
2023/02/13 04:19:34;;;;;;;13.88;8.50;;;;;;;6.42;100.00;102937.38;5000869;28;20149;-61
2023/02/13 04:22:02;;;;;;;13.45;8.25;;;;;;;6.42;100.00;102940.00;5002530;28;20142;-59
2023/02/13 04:24:29;;;;;;;9.68;6.82;;;;;;;6.44;100.00;102933.88;5003807;28;20066;-60
2023/02/13 04:26:57;;;;;;;9.05;7.43;;;;;;;6.48;100.00;102938.19;5007301;28;20478;-60
2023/02/13 04:29:25;;;;;;;11.20;7.63;;;;;;;6.50;100.00;102944.31;5012659;28;20937;-59
2023/02/13 04:31:52;;;;;;;10.85;8.43;;;;;;;6.50;100.00;102941.69;5009332;28;20045;-58
2023/02/13 04:34:19;;;;;;;12.25;8.00;;;;;;;6.48;100.00;102945.19;5010121;28;20172;-58
2023/02/13 04:36:47;;;;;;;15.80;9.25;;;;;;;6.46;100.00;102949.56;5010231;28;20067;-60
2023/02/13 04:39:14;;;;;;;11.00;8.35;;;;;;;6.47;100.00;102936.47;5008329;28;20057;-59
2023/02/13 04:41:41;;;;;;;12.70;9.50;;;;;;;6.47;100.00;102932.97;5012129;28;20092;-57
2023/02/13 04:44:09;;;;;;;16.25;11.32;;;;;;;6.48;100.00;102932.09;5005389;28;20648;-58
2023/02/13 04:46:36;;;;;;;16.38;11.90;;;;;;;6.46;100.00;102924.25;5009500;28;20144;-60
2023/02/13 04:49:03;;;;;;;17.02;11.75;;;;;;;6.49;100.00;102923.41;5004260;28;20137;-61
2023/02/13 04:51:30;;;;;;;18.70;12.35;;;;;;;6.50;100.00;102918.13;5008613;28;20081;-60
2023/02/13 04:53:57;;;;;;;17.70;12.68;;;;;;;6.48;100.00;102924.25;5007862;28;20141;-61
2023/02/13 04:56:24;;;;;;;17.30;12.23;;;;;;;6.48;100.00;102924.25;5006587;28;20068;-59
2023/02/13 04:58:53;;;;;;;17.00;12.60;;;;;;;6.46;100.00;102921.66;5004942;28;20140;-62
2023/02/13 05:01:21;;;;;;;19.52;14.02;;;;;;;6.50;100.00;102930.34;5002976;28;20052;-62
2023/02/13 05:03:48;;;;;;;15.68;11.38;;;;;;;6.54;100.00;102927.72;5012844;28;20042;-61
2023/02/13 05:06:15;;;;;;;18.20;12.90;;;;;;;6.51;100.00;102930.34;5003101;28;20160;-62
2023/02/13 05:08:43;;;;;;;16.20;11.80;;;;;;;6.50;100.00;102927.75;5002013;28;20085;-59
2023/02/13 05:11:10;;;;;;;13.98;10.90;;;;;;;6.48;100.00;102930.34;5010861;28;20056;-59
2023/02/13 05:13:37;;;;;;;16.30;11.25;;;;;;;6.49;100.00;102933.88;5011062;28;20053;-59
2023/02/13 05:16:04;;;;;;;15.30;10.32;;;;;;;6.49;100.00;102942.56;5006646;28;20046;-60
2023/02/13 05:18:32;;;;;;;13.75;10.02;;;;;;;6.45;100.00;102935.63;5007293;28;20061;-60
2023/02/13 05:23:45;;;;;;;18.20;10.88;;;;;;;6.44;100.00;102941.72;5008358;28;20065;-60
2023/02/13 05:26:12;;;;;;;17.98;11.25;;;;;;;6.44;100.00;102938.22;5010484;28;20432;-58
2023/02/13 05:31:25;;;;;;;15.70;9.68;;;;;;;6.43;100.00;102939.97;5011114;28;21185;-60
2023/02/13 05:33:52;;;;;;;15.52;10.52;;;;;;;6.47;100.00;102941.69;5010796;28;20079;-59
2023/02/13 05:36:20;;;;;;;15.70;9.88;;;;;;;6.45;100.00;102940.84;5004219;28;20128;-58
2023/02/13 05:38:47;;;;;;;13.90;9.93;;;;;;;6.44;100.00;102939.13;4998813;28;20062;-60
2023/02/13 05:41:14;;;;;;;14.70;10.60;;;;;;;6.45;100.00;102938.22;5008247;28;20136;-60
2023/02/13 05:43:42;;;;;;;14.48;8.15;;;;;;;6.49;100.00;102934.72;5009884;28;20072;-61
2023/02/13 05:46:09;;;;;;;13.40;10.02;;;;;;;6.49;100.00;102936.47;5006292;28;20133;-60
2023/02/13 05:48:36;;;;;;;14.45;8.93;;;;;;;6.50;100.00;102938.22;5008051;28;20129;-59
2023/02/13 05:51:04;;;;;;;12.95;7.90;;;;;;;6.47;100.00;102936.47;5003910;28;20046;-60
2023/02/13 05:53:34;;;;;;;12.93;8.85;;;;;;;6.45;100.00;102946.09;5002679;28;21239;-61
2023/02/13 05:56:03;;;;;;;18.77;9.60;;;;;;;6.51;100.00;102946.03;4994800;28;20515;-61
2023/02/13 05:58:31;;;;;;;12.77;9.13;;;;;;;6.55;100.00;102952.13;5016266;28;20081;-62
2023/02/13 06:00:59;;;;;;;13.00;8.50;;;;;;;6.51;100.00;102953.03;5022415;28;20058;-63
2023/02/13 06:03:28;;;;;;;12.82;9.00;;;;;;;6.49;100.00;102958.28;5023374;28;20057;-62
2023/02/13 06:05:55;;;;;;;12.05;8.23;;;;;;;6.51;100.00;102956.50;5021849;28;20121;-59
2023/02/13 06:08:23;;;;;;;11.75;8.13;;;;;;;6.50;100.00;102965.25;5006950;28;20714;-63
2023/02/13 06:10:50;;;;;;;9.63;7.45;;;;;;;6.55;100.00;102970.47;5014181;28;20132;-62
2023/02/13 06:13:18;;;;;;;12.18;8.10;;;;;;;6.57;100.00;102959.13;4999249;28;20085;-62
2023/02/13 06:15:45;;;;;;;11.20;8.45;;;;;;;6.56;100.00;102967.81;5007878;28;20066;-61
2023/02/13 06:18:12;;;;;;;11.63;8.32;;;;;;;6.57;100.00;102969.59;5006586;28;20160;-59
2023/02/13 06:20:39;;;;;;;13.85;8.98;;;;;;;6.59;100.00;102962.59;4992872;28;20173;-58
2023/02/13 06:23:09;;;;;;;9.95;7.88;;;;;;;6.58;100.00;102965.22;4991121;28;20372;-60
2023/02/13 06:25:36;;;;;;;11.80;8.07;;;;;;;6.56;100.00;102967.81;4988520;28;20050;-57
2023/02/13 06:28:04;;;;;;;13.75;8.27;;;;;;;6.57;99.77;102961.72;4990948;28;21629;-61
2023/02/13 06:30:31;;;;;;;12.90;8.23;;;;;;;6.62;100.00;102958.19;4992047;28;20145;-60
2023/02/13 06:32:59;;;;;;;11.30;7.40;;;;;;;6.66;99.73;102962.53;4990419;28;20058;-61
2023/02/13 06:35:26;;;;;;;15.35;7.88;;;;;;;6.62;99.71;102963.44;4984019;28;20093;-58
2023/02/13 06:37:54;;;;;;;9.23;7.25;;;;;;;6.63;99.34;102968.69;4993595;28;20185;-60
2023/02/13 06:40:21;;;;;;;11.43;7.18;;;;;;;6.65;99.80;102966.91;4985631;28;20062;-60
2023/02/13 06:42:48;;;;;;;11.10;8.13;;;;;;;6.69;99.50;102968.63;4981884;28;20053;-60
2023/02/13 06:45:15;;;;;;;9.02;6.65;;;;;;;6.70;99.57;102969.50;4987293;28;20058;-58
2023/02/13 06:47:44;;;;;;;10.88;6.70;;;;;;;6.71;99.56;102976.47;5002320;28;20522;-60
2023/02/13 06:50:13;;;;;;;9.77;6.90;;;;;;;6.70;99.59;102980.84;5004731;28;20137;-59
2023/02/13 06:52:49;;;;;;;10.07;6.80;;;;;;;6.71;99.00;102985.22;5000331;28;21140;-60
2023/02/13 06:55:17;;;;;;;9.02;6.10;;;;;;;6.71;98.76;102986.94;5007798;28;20144;-62
2023/02/13 06:57:45;;;;;;;11.23;6.97;;;;;;;6.74;97.35;102986.94;5008520;28;20060;-59
2023/02/13 07:00:14;;;;;;;10.77;6.88;;;;;;;6.74;97.03;102989.56;5002990;28;20165;-60
2023/02/13 07:02:43;;;;;;;9.73;5.95;;;;;;;6.76;97.30;102995.66;5010812;28;20064;-60
2023/02/13 07:05:11;;;;;;;25.77;8.75;;;;;;;6.75;97.91;102991.28;5008813;28;20058;-59
2023/02/13 07:07:40;;;;;;;18.75;7.30;;;;;;;6.75;98.23;102993.91;5009177;28;20049;-61
2023/02/13 07:10:10;;;;;;;34.88;9.90;;;;;;;6.74;97.04;102986.94;5004387;28;20512;-60
2023/02/13 07:12:37;;;;;;;77.45;14.60;;;;;;;6.75;96.80;102993.91;5002348;28;20544;-61
2023/02/13 07:15:06;;;;;;;32.13;8.73;;;;;;;6.80;97.46;102997.41;4999054;28;20550;-60
2023/02/13 07:17:34;;;;;;;23.17;8.38;;;;;;;6.80;97.83;102998.25;5004142;28;20076;-59
2023/02/13 07:20:03;;;;;;;10.93;6.85;;;;;;;6.79;97.78;102996.50;5005988;28;20062;-60
2023/02/13 07:22:31;;;;;;;10.43;7.03;;;;;;;6.78;96.95;102997.38;5008324;28;20041;-60
2023/02/13 07:25:00;;;;;;;11.48;6.68;;;;;;;6.81;98.18;102996.50;5006584;28;20054;-61
2023/02/13 07:27:28;;;;;;;8.65;6.32;;;;;;;6.83;98.67;102999.97;5007295;28;20274;-59
2023/02/13 07:29:56;;;;;;;8.50;6.28;;;;;;;6.80;97.32;103005.25;5004789;28;20675;-60
2023/02/13 07:32:24;;;;;;;8.20;6.22;;;;;;;6.79;97.01;103001.72;5007302;28;20131;-61
2023/02/13 07:34:51;;;;;;;7.75;6.35;;;;;;;6.79;97.04;103008.72;5012255;28;20491;-61
2023/02/13 07:37:29;;;;;;;8.20;6.63;;;;;;;6.75;96.34;103007.00;5006927;28;20178;-60
2023/02/13 07:39:56;;;;;;;9.48;6.57;;;;;;;6.75;95.73;103001.75;5009989;28;21768;-60
2023/02/13 07:42:23;;;;;;;9.98;6.82;;;;;;;6.76;96.36;103007.00;5003393;28;20072;-61
2023/02/13 07:44:51;;;;;;;10.35;6.85;;;;;;;6.80;96.29;103000.00;5002647;28;20061;-59
2023/02/13 07:47:18;;;;;;;8.55;6.47;;;;;;;6.81;96.71;103009.59;5007814;28;20057;-61
2023/02/13 07:49:46;;;;;;;10.15;6.53;;;;;;;6.80;96.34;103011.34;5011824;28;20067;-61
2023/02/13 07:52:13;;;;;;;9.85;6.15;;;;;;;6.82;96.93;103012.19;5006621;28;20581;-60
2023/02/13 07:54:46;;;;;;;10.13;6.50;;;;;;;6.84;96.35;103010.47;5002956;28;20275;-57
2023/02/13 07:57:14;;;;;;;9.18;6.55;;;;;;;6.82;96.33;103013.94;4997493;28;20046;-62
2023/02/13 07:59:42;;;;;;;26.70;8.25;;;;;;;6.82;96.13;103008.72;5006648;28;20141;-61
2023/02/13 08:02:13;;;;;;;20.30;8.82;;;;;;;6.82;96.40;103011.34;5006657;28;20045;-59
2023/02/13 08:04:44;;;;;;;71.82;15.48;;;;;;;6.79;96.20;103016.56;5007918;28;20056;-61
2023/02/13 08:07:13;;;;;;;24.35;8.40;;;;;;;6.77;96.59;103016.59;5006123;28;20639;-60
2023/02/13 08:12:28;;;;;;;11.77;7.18;;;;;;;6.83;96.53;103021.78;5013059;28;20054;-57
2023/02/13 08:14:55;;;;;;;15.82;7.82;;;;;;;6.84;97.26;103017.41;5006048;28;20211;-57
2023/02/13 08:17:23;;;;;;;10.13;6.70;;;;;;;6.87;97.39;103029.63;5004925;28;20463;-60
2023/02/13 08:19:50;;;;;;;10.75;7.63;;;;;;;6.82;97.33;103024.41;4997960;28;20131;-59
2023/02/13 08:22:17;;;;;;;11.15;7.20;;;;;;;6.81;97.11;103017.47;5009434;28;20523;-61
2023/02/13 08:24:45;;;;;;;11.13;6.88;;;;;;;6.84;97.55;103013.06;5007240;28;20133;-62
2023/02/13 08:27:13;;;;;;;14.30;7.63;;;;;;;6.85;97.62;103011.31;5010390;28;20142;-61
2023/02/13 08:29:40;;;;;;;53.42;10.65;;;;;;;6.82;98.04;103017.44;5009274;28;20064;-60
2023/02/13 08:32:08;;;;;;;54.58;11.55;;;;;;;6.81;97.72;103014.84;5012931;28;20080;-57
2023/02/13 08:34:35;;;;;;;13.93;7.90;;;;;;;6.78;98.57;103017.47;5014544;28;20042;-59
2023/02/13 08:37:02;;;;;;;13.20;7.20;;;;;;;6.77;99.29;103018.34;5013459;28;20061;-59
2023/02/13 08:39:29;;;;;;;14.07;8.45;;;;;;;6.78;99.57;103022.69;5012787;28;20057;-60
2023/02/13 08:41:57;;;;;;;11.98;8.02;;;;;;;6.78;99.33;103018.31;5010127;28;20054;-57
2023/02/13 08:44:24;;;;;;;12.43;8.13;;;;;;;6.79;99.48;103014.81;5014114;28;20136;-60
2023/02/13 08:46:51;;;;;;;11.30;7.63;;;;;;;6.83;100.00;103015.69;4992725;28;20659;-59
2023/02/13 08:49:18;;;;;;;13.85;8.75;;;;;;;6.84;100.00;103014.81;5000271;28;20053;-62
2023/02/13 08:51:46;;;;;;;12.63;8.15;;;;;;;6.86;99.67;103015.69;5008236;28;20137;-60
2023/02/13 08:54:13;;;;;;;11.80;7.43;;;;;;;6.91;99.50;103016.53;5007749;28;20463;-62
2023/02/13 08:56:41;;;;;;;13.25;8.00;;;;;;;6.92;99.61;103013.00;5004028;28;20066;-60
2023/02/13 08:59:08;;;;;;;12.18;7.45;;;;;;;6.95;99.58;103009.53;5007899;28;20131;-58
2023/02/13 09:01:36;;;;;;;13.30;8.10;;;;;;;6.98;99.67;103026.09;5008043;28;20144;-59
2023/02/13 09:04:03;;;;;;;12.73;7.28;;;;;;;7.07;99.21;103018.19;5009134;28;20485;-63
2023/02/13 09:06:30;;;;;;;12.55;7.78;;;;;;;7.03;98.80;103016.47;5012752;28;20153;-59
2023/02/13 09:08:57;;;;;;;11.00;7.63;;;;;;;7.02;98.65;103019.06;5008010;28;20053;-59
2023/02/13 09:11:25;;;;;;;14.60;8.60;;;;;;;7.02;99.04;103014.69;5008111;28;20053;-60
2023/02/13 09:13:52;;;;;;;16.25;8.55;;;;;;;7.01;99.71;103020.81;5007039;28;20049;-60
2023/02/13 09:16:20;;;;;;;13.57;8.15;;;;;;;7.04;99.82;103022.56;5008773;28;20601;-60
2023/02/13 09:18:48;;;;;;;14.60;8.73;;;;;;;7.01;100.00;103025.19;5009913;28;20047;-60
2023/02/13 09:21:17;;;;;;;13.20;9.25;;;;;;;6.97;100.00;103029.56;5004658;28;20060;-61
2023/02/13 09:23:45;;;;;;;12.20;8.02;;;;;;;6.90;100.00;103021.78;5019827;28;20131;-62
2023/02/13 09:26:16;;;;;;;14.10;8.32;;;;;;;6.90;100.00;103030.50;5023273;28;20580;-61
2023/02/13 09:28:46;;;;;;;14.65;8.95;;;;;;;6.93;100.00;103029.59;5019614;28;20117;-61
2023/02/13 09:31:18;;;;;;;13.35;8.73;;;;;;;6.91;100.00;103036.59;5018016;28;20049;-55
2023/02/13 09:33:47;;;;;;;12.38;8.05;;;;;;;6.89;100.00;103036.63;5016581;28;20152;-57
2023/02/13 09:36:18;;;;;;;38.92;11.25;;;;;;;6.83;100.00;103041.88;5005630;28;20054;-60
2023/02/13 09:38:51;;;;;;;37.70;11.55;;;;;;;6.79;100.00;103038.38;5007628;28;20149;-60
2023/02/13 09:41:24;;;;;;;86.72;16.90;;;;;;;6.76;100.00;103046.28;5012438;28;20052;-59
2023/02/13 09:44:01;;;;;;;36.20;12.25;;;;;;;6.73;100.00;103051.50;5009003;28;20053;-61
2023/02/13 09:46:28;;;;;;;17.38;10.05;;;;;;;6.70;100.00;103058.50;5009362;28;20750;-61
2023/02/13 09:48:56;;;;;;;15.80;10.13;;;;;;;6.66;100.00;103046.28;5004535;28;20343;-59
2023/02/13 09:51:24;;;;;;;40.13;14.30;;;;;;;6.60;100.00;103036.72;5004288;28;20398;-61
2023/02/13 09:53:57;;;;;;;45.75;13.40;;;;;;;6.58;100.00;103039.38;5012762;28;20161;-60
2023/02/13 09:56:39;;;;;;;32.30;13.82;;;;;;;6.58;100.00;103044.59;5012292;28;20440;-61
2023/02/13 09:59:20;;;;;;;41.80;14.18;;;;;;;6.63;100.00;103035.88;5004168;28;20409;-56
2023/02/13 10:01:48;;;;;;;22.75;11.43;;;;;;;6.67;100.00;103037.59;5003033;28;20117;-61
2023/02/13 10:04:45;;;;;;;20.13;11.32;;;;;;;6.64;100.00;103029.75;5008881;28;20136;-60
2023/02/13 10:07:33;;;;;;;19.13;10.25;;;;;;;6.62;100.00;103035.00;5005766;28;20121;-58
2023/02/13 10:10:23;;;;;;;16.25;9.75;;;;;;;6.63;100.00;103033.25;5008324;28;20719;-56
2023/02/13 10:13:18;;;;;;;16.02;10.73;;;;;;;6.60;100.00;103037.59;4993539;28;20076;-62
2023/02/13 10:15:48;;;;;;;20.33;11.50;;;;;;;6.62;100.00;103039.34;4981747;28;20054;-62
2023/02/13 10:18:21;;;;;;;17.52;11.52;;;;;;;6.67;100.00;103038.47;4984155;28;20534;-61
2023/02/13 10:20:53;;;;;;;18.58;11.55;;;;;;;6.68;100.00;103039.31;4993134;28;20080;-61
2023/02/13 10:23:26;;;;;;;17.27;11.98;;;;;;;6.70;100.00;103027.94;4999446;28;20041;-61
2023/02/13 10:26:00;;;;;;;19.67;13.32;;;;;;;6.71;100.00;103039.28;4996084;28;20108;-59
2023/02/13 10:28:33;;;;;;;37.95;13.63;;;;;;;6.71;100.00;103037.56;4993038;28;20269;-56
2023/02/13 10:31:11;;;;;;;27.48;12.02;;;;;;;6.72;100.00;103034.06;4994063;28;20068;-60
2023/02/13 10:33:50;;;;;;;23.23;12.52;;;;;;;6.79;100.00;103025.28;4996653;28;20056;-61
2023/02/13 10:36:23;;;;;;;18.90;11.77;;;;;;;6.76;100.00;103029.69;4997242;28;20068;-62
2023/02/13 10:38:56;;;;;;;20.88;12.80;;;;;;;6.73;100.00;103032.31;4999036;28;20056;-60
2023/02/13 10:41:34;;;;;;;19.23;13.65;;;;;;;6.77;100.00;103028.81;5004446;28;20133;-60
2023/02/13 10:44:09;;;;;;;18.90;12.55;;;;;;;6.82;100.00;103032.28;4998390;28;20132;-61
2023/02/13 10:46:45;;;;;;;18.33;12.15;;;;;;;6.78;100.00;103027.94;5003548;28;20099;-60
2023/02/13 10:49:25;;;;;;;18.25;11.40;;;;;;;6.88;100.00;103015.66;4992810;28;20056;-61
2023/02/13 10:52:28;;;;;;;52.95;15.38;;;;;;;6.80;100.00;103019.22;4999077;28;20168;-60
2023/02/13 10:55:21;;;;;;;22.52;12.35;;;;;;;6.78;100.00;103013.09;4994223;28;20077;-59
2023/02/13 10:58:13;;;;;;;18.05;12.38;;;;;;;6.78;100.00;103010.47;4996260;28;20053;-60
2023/02/13 11:00:46;;;;;;;18.98;12.02;;;;;;;6.81;100.00;103005.22;5003618;28;20058;-60
2023/02/13 11:03:20;;;;;;;18.95;12.43;;;;;;;6.88;100.00;103006.06;5001110;28;20115;-58
2023/02/13 11:05:48;;;;;;;22.48;12.02;;;;;;;6.90;100.00;103006.94;4993271;28;20046;-60
2023/02/13 11:08:22;;;;;;;18.63;12.63;;;;;;;6.92;100.00;103007.78;5000224;28;20140;-62
2023/02/13 11:10:49;;;;;;;17.17;11.98;;;;;;;6.93;100.00;103001.66;5010690;28;20497;-59
2023/02/13 11:13:19;;;;;;;17.52;12.25;;;;;;;6.88;100.00;103003.44;4999142;28;20042;-60
2023/02/13 11:16:06;;;;;;;19.65;12.88;;;;;;;6.93;100.00;103006.03;5007126;28;20415;-61
2023/02/13 11:18:36;;;;;;;17.27;11.65;;;;;;;7.00;100.00;103000.75;5010097;28;20100;-58
2023/02/13 11:21:09;;;;;;;20.58;13.95;;;;;;;7.01;100.00;102996.38;5007005;28;20132;-60
2023/02/13 11:23:41;;;;;;;21.98;14.10;;;;;;;7.00;100.00;102995.50;5001351;28;20503;-60
2023/02/13 11:26:14;;;;;;;19.42;13.05;;;;;;;7.04;100.00;102994.63;5009885;28;20459;-61
2023/02/13 11:28:52;;;;;;;19.67;12.32;;;;;;;7.12;100.00;102993.72;5004250;28;20136;-60
2023/02/13 11:31:31;;;;;;;21.17;14.68;;;;;;;7.20;100.00;102989.28;5006445;28;20245;-61
2023/02/13 11:34:21;;;;;;;21.60;13.38;;;;;;;7.18;100.00;102989.28;5007607;28;20112;-61
2023/02/13 11:36:54;;;;;;;20.05;12.65;;;;;;;7.14;100.00;102979.72;5002873;28;20049;-59
2023/02/13 11:39:22;;;;;;;21.00;14.70;;;;;;;7.18;100.00;102988.41;5004621;28;20428;-58
2023/02/13 11:41:52;;;;;;;21.35;15.02;;;;;;;7.14;100.00;102986.69;5007383;28;20042;-59
2023/02/13 11:44:28;;;;;;;20.52;14.93;;;;;;;7.16;100.00;102990.16;5007127;28;20584;-60
2023/02/13 11:47:02;;;;;;;19.25;14.00;;;;;;;7.20;100.00;102987.50;5010797;28;20045;-59
2023/02/13 11:49:33;;;;;;;21.45;13.90;;;;;;;7.16;100.00;102984.94;5002933;28;20133;-61
2023/02/13 11:52:02;;;;;;;22.35;15.80;;;;;;;7.15;100.00;102984.06;5002651;28;20141;-59
2023/02/13 11:54:39;;;;;;;19.58;13.52;;;;;;;7.15;100.00;102975.34;4997616;28;20053;-60
2023/02/13 11:57:18;;;;;;;19.15;14.75;;;;;;;7.20;100.00;102979.66;4996450;28;20092;-61
2023/02/13 11:59:48;;;;;;;21.48;15.75;;;;;;;7.20;100.00;102970.94;4999430;28;20414;-60
2023/02/13 12:02:19;;;;;;;24.27;15.77;;;;;;;7.18;100.00;102972.72;4999190;28;20128;-61
2023/02/13 12:05:20;;;;;;;24.25;16.35;;;;;;;7.19;100.00;102963.97;4994964;28;20472;-61
2023/02/13 12:07:48;;;;;;;25.95;16.33;;;;;;;7.17;100.00;102961.38;5003658;28;20092;-61
2023/02/13 12:10:21;;;;;;;21.92;16.55;;;;;;;7.17;100.00;102965.72;4999772;28;20136;-62
2023/02/13 12:12:55;;;;;;;25.80;16.80;;;;;;;7.14;100.00;102963.13;5006460;28;20154;-61
2023/02/13 12:15:27;;;;;;;24.92;16.58;;;;;;;7.14;100.00;102971.84;5007104;28;20068;-62
2023/02/13 12:18:27;;;;;;;22.40;16.90;;;;;;;7.11;100.00;102971.84;5011147;28;20057;-60
2023/02/13 12:21:03;;;;;;;26.17;16.13;;;;;;;7.09;100.00;102973.63;5021393;28;20132;-60
2023/02/13 12:24:02;;;;;;;86.68;22.95;;;;;;;7.07;100.00;102967.56;4996802;28;20080;-59
2023/02/13 12:26:35;;;;;;;39.17;18.85;;;;;;;7.13;100.00;102971.88;4997040;28;20169;-62
2023/02/13 12:29:38;;;;;;;27.55;18.17;;;;;;;7.14;100.00;102974.47;5002637;28;20081;-57